sensor_id;sensor_type;location;lat;lon;timestamp;pressure;altitude;pressure_sealevel;temperature;humidity
48846;BME280;34665;51.886;5.436;2022-09-23T00:01:32;101609.88;;;20.65;88.11
48846;BME280;34665;51.886;5.436;2022-09-23T00:03:58;101612.69;;;20.70;88.32
48846;BME280;34665;51.886;5.436;2022-09-23T00:06:25;101614.25;;;20.66;89.53
48846;BME280;34665;51.886;5.436;2022-09-23T00:08:54;101610.22;;;20.69;89.09
48846;BME280;34665;51.886;5.436;2022-09-23T00:11:22;101610.78;;;20.54;89.03
48846;BME280;34665;51.886;5.436;2022-09-23T00:13:49;101604.72;;;20.52;90.37
48846;BME280;34665;51.886;5.436;2022-09-23T00:16:18;101609.22;;;20.58;91.45
48846;BME280;34665;51.886;5.436;2022-09-23T00:18:44;101604.84;;;20.57;92.52
48846;BME280;34665;51.886;5.436;2022-09-23T00:21:12;101607.44;;;20.52;92.10
48846;BME280;34665;51.886;5.436;2022-09-23T00:23:40;101603.28;;;20.61;91.00
48846;BME280;34665;51.886;5.436;2022-09-23T00:26:10;101596.31;;;20.07;93.34
48846;BME280;34665;51.886;5.436;2022-09-23T00:28:36;101594.41;;;20.08;97.16
48846;BME280;34665;51.886;5.436;2022-09-23T00:31:03;101590.66;;;19.97;99.09
48846;BME280;34665;51.886;5.436;2022-09-23T00:33:29;101582.56;;;19.73;100.00
48846;BME280;34665;51.886;5.436;2022-09-23T00:36:03;101579.34;;;19.76;100.00
48846;BME280;34665;51.886;5.436;2022-09-23T00:38:29;101585.94;;;19.80;100.00
48846;BME280;34665;51.886;5.436;2022-09-23T00:40:55;101577.81;;;19.80;100.00
48846;BME280;34665;51.886;5.436;2022-09-23T00:43:58;101584.16;;;19.86;100.00
48846;BME280;34665;51.886;5.436;2022-09-23T00:46:32;101582.44;;;19.80;100.00
48846;BME280;34665;51.886;5.436;2022-09-23T00:49:10;101583.50;;;19.67;100.00
48846;BME280;34665;51.886;5.436;2022-09-23T00:51:39;101580.22;;;19.65;100.00
48846;BME280;34665;51.886;5.436;2022-09-23T00:54:08;101579.88;;;20.14;100.00
48846;BME280;34665;51.886;5.436;2022-09-23T00:56:36;101572.97;;;19.82;100.00
48846;BME280;34665;51.886;5.436;2022-09-23T00:59:03;101568.03;;;19.79;100.00
48846;BME280;34665;51.886;5.436;2022-09-23T01:01:30;101564.44;;;19.38;100.00
48846;BME280;34665;51.886;5.436;2022-09-23T01:03:56;101563.72;;;19.42;100.00
48846;BME280;34665;51.886;5.436;2022-09-23T01:06:22;101564.88;;;19.58;100.00
48846;BME280;34665;51.886;5.436;2022-09-23T01:08:48;101568.31;;;19.66;99.09
48846;BME280;34665;51.886;5.436;2022-09-23T01:11:18;101566.28;;;19.73;97.59
48846;BME280;34665;51.886;5.436;2022-09-23T01:13:55;101567.97;;;19.26;100.00
48846;BME280;34665;51.886;5.436;2022-09-23T01:19:45;101563.50;;;19.08;100.00
48846;BME280;34665;51.886;5.436;2022-09-23T01:22:41;101564.19;;;19.15;100.00
48846;BME280;34665;51.886;5.436;2022-09-23T01:25:23;101557.13;;;19.14;100.00
48846;BME280;34665;51.886;5.436;2022-09-23T01:28:48;101561.03;;;19.18;100.00
48846;BME280;34665;51.886;5.436;2022-09-23T01:31:16;101561.28;;;19.17;100.00
48846;BME280;34665;51.886;5.436;2022-09-23T01:33:53;101561.00;;;19.06;100.00
48846;BME280;34665;51.886;5.436;2022-09-23T01:36:28;101555.00;;;19.04;100.00
48846;BME280;34665;51.886;5.436;2022-09-23T01:39:11;101554.41;;;19.02;100.00
48846;BME280;34665;51.886;5.436;2022-09-23T01:44:40;101546.38;;;19.43;100.00
48846;BME280;34665;51.886;5.436;2022-09-23T01:47:15;101551.00;;;19.43;100.00
48846;BME280;34665;51.886;5.436;2022-09-23T01:49:58;101550.88;;;19.38;100.00
48846;BME280;34665;51.886;5.436;2022-09-23T01:52:42;101550.75;;;19.20;100.00
48846;BME280;34665;51.886;5.436;2022-09-23T01:55:14;101553.44;;;18.85;100.00
48846;BME280;34665;51.886;5.436;2022-09-23T01:57:47;101549.56;;;18.92;100.00
48846;BME280;34665;51.886;5.436;2022-09-23T02:00:16;101546.59;;;18.70;100.00
48846;BME280;34665;51.886;5.436;2022-09-23T02:05:21;101552.72;;;18.77;100.00
48846;BME280;34665;51.886;5.436;2022-09-23T02:10:35;101546.53;;;18.46;100.00
48846;BME280;34665;51.886;5.436;2022-09-23T02:13:21;101550.53;;;18.13;100.00
48846;BME280;34665;51.886;5.436;2022-09-23T02:15:53;101542.72;;;18.05;100.00
48846;BME280;34665;51.886;5.436;2022-09-23T02:18:23;101537.66;;;18.09;100.00
48846;BME280;34665;51.886;5.436;2022-09-23T02:20:56;101533.59;;;18.18;100.00
48846;BME280;34665;51.886;5.436;2022-09-23T02:23:26;101521.22;;;17.91;100.00
48846;BME280;34665;51.886;5.436;2022-09-23T02:26:16;101524.06;;;17.97;100.00
48846;BME280;34665;51.886;5.436;2022-09-23T02:28:55;101522.94;;;18.04;100.00
48846;BME280;34665;51.886;5.436;2022-09-23T02:31:34;101510.91;;;18.00;100.00
48846;BME280;34665;51.886;5.436;2022-09-23T02:34:38;101511.16;;;17.80;100.00
48846;BME280;34665;51.886;5.436;2022-09-23T02:37:08;101508.47;;;17.61;100.00
48846;BME280;34665;51.886;5.436;2022-09-23T02:42:15;101503.97;;;17.55;100.00
48846;BME280;34665;51.886;5.436;2022-09-23T02:44:43;101502.09;;;17.37;100.00
48846;BME280;34665;51.886;5.436;2022-09-23T02:47:09;101492.78;;;17.33;100.00
48846;BME280;34665;51.886;5.436;2022-09-23T02:49:35;101490.59;;;17.23;100.00
48846;BME280;34665;51.886;5.436;2022-09-23T02:52:02;101490.59;;;17.23;100.00
48846;BME280;34665;51.886;5.436;2022-09-23T02:54:30;101486.25;;;17.59;100.00
48846;BME280;34665;51.886;5.436;2022-09-23T02:57:00;101491.91;;;17.88;100.00
48846;BME280;34665;51.886;5.436;2022-09-23T02:59:28;101487.34;;;17.89;100.00
48846;BME280;34665;51.886;5.436;2022-09-23T03:05:18;101483.25;;;17.30;100.00
48846;BME280;34665;51.886;5.436;2022-09-23T03:11:05;101473.72;;;17.46;100.00
48846;BME280;34665;51.886;5.436;2022-09-23T03:13:37;101477.41;;;17.33;100.00
48846;BME280;34665;51.886;5.436;2022-09-23T03:16:40;101478.19;;;17.15;100.00
48846;BME280;34665;51.886;5.436;2022-09-23T03:21:59;101474.00;;;17.57;100.00
48846;BME280;34665;51.886;5.436;2022-09-23T03:24:28;101473.56;;;17.23;100.00
48846;BME280;34665;51.886;5.436;2022-09-23T03:26:57;101471.53;;;17.18;100.00
48846;BME280;34665;51.886;5.436;2022-09-23T03:29:25;101469.19;;;17.03;100.00
48846;BME280;34665;51.886;5.436;2022-09-23T03:31:53;101465.06;;;17.19;100.00
48846;BME280;34665;51.886;5.436;2022-09-23T03:34:23;101468.38;;;17.40;100.00
48846;BME280;34665;51.886;5.436;2022-09-23T03:36:57;101467.66;;;17.63;100.00
48846;BME280;34665;51.886;5.436;2022-09-23T03:39:31;101475.28;;;17.36;100.00
48846;BME280;34665;51.886;5.436;2022-09-23T03:42:04;101474.22;;;17.18;100.00
48846;BME280;34665;51.886;5.436;2022-09-23T03:44:35;101476.28;;;16.97;100.00
48846;BME280;34665;51.886;5.436;2022-09-23T03:47:04;101474.06;;;17.13;100.00
48846;BME280;34665;51.886;5.436;2022-09-23T03:49:34;101476.34;;;17.34;100.00
48846;BME280;34665;51.886;5.436;2022-09-23T03:52:01;101472.19;;;17.69;100.00
48846;BME280;34665;51.886;5.436;2022-09-23T03:54:28;101459.59;;;17.75;100.00
48846;BME280;34665;51.886;5.436;2022-09-23T03:56:57;101450.94;;;17.54;100.00
48846;BME280;34665;51.886;5.436;2022-09-23T03:59:24;101456.59;;;17.34;100.00
48846;BME280;34665;51.886;5.436;2022-09-23T04:01:51;101450.38;;;17.33;100.00
48846;BME280;34665;51.886;5.436;2022-09-23T04:04:17;101451.31;;;17.58;100.00
48846;BME280;34665;51.886;5.436;2022-09-23T04:06:43;101456.72;;;17.88;100.00
48846;BME280;34665;51.886;5.436;2022-09-23T04:09:09;101460.59;;;17.81;100.00
48846;BME280;34665;51.886;5.436;2022-09-23T04:11:35;101458.16;;;17.42;100.00
48846;BME280;34665;51.886;5.436;2022-09-23T04:14:00;101455.31;;;17.86;100.00
48846;BME280;34665;51.886;5.436;2022-09-23T04:16:26;101454.50;;;17.85;100.00
48846;BME280;34665;51.886;5.436;2022-09-23T04:18:51;101459.44;;;17.88;100.00
48846;BME280;34665;51.886;5.436;2022-09-23T04:21:17;101464.75;;;17.95;100.00
48846;BME280;34665;51.886;5.436;2022-09-23T04:23:42;101458.63;;;17.88;100.00
48846;BME280;34665;51.886;5.436;2022-09-23T04:26:08;101450.81;;;17.80;100.00
48846;BME280;34665;51.886;5.436;2022-09-23T04:28:34;101445.97;;;17.51;100.00
48846;BME280;34665;51.886;5.436;2022-09-23T04:31:04;101448.00;;;17.37;100.00
48846;BME280;34665;51.886;5.436;2022-09-23T04:33:30;101450.44;;;17.27;100.00
48846;BME280;34665;51.886;5.436;2022-09-23T04:35:56;101440.69;;;17.26;100.00
48846;BME280;34665;51.886;5.436;2022-09-23T04:38:21;101444.44;;;17.25;100.00
48846;BME280;34665;51.886;5.436;2022-09-23T04:40:47;101445.84;;;17.09;100.00
48846;BME280;34665;51.886;5.436;2022-09-23T04:43:14;101451.31;;;17.02;100.00
48846;BME280;34665;51.886;5.436;2022-09-23T04:45:41;101439.84;;;16.81;100.00
48846;BME280;34665;51.886;5.436;2022-09-23T04:48:06;101443.72;;;16.67;100.00
48846;BME280;34665;51.886;5.436;2022-09-23T04:50:35;101443.00;;;16.53;100.00
48846;BME280;34665;51.886;5.436;2022-09-23T04:53:02;101440.19;;;16.41;100.00
48846;BME280;34665;51.886;5.436;2022-09-23T04:55:27;101439.16;;;16.42;100.00
48846;BME280;34665;51.886;5.436;2022-09-23T04:57:53;101440.31;;;16.27;100.00
48846;BME280;34665;51.886;5.436;2022-09-23T05:00:19;101439.03;;;16.30;100.00
48846;BME280;34665;51.886;5.436;2022-09-23T05:02:46;101436.09;;;16.38;100.00
48846;BME280;34665;51.886;5.436;2022-09-23T05:05:13;101436.50;;;16.35;100.00
48846;BME280;34665;51.886;5.436;2022-09-23T05:07:41;101437.81;;;16.26;100.00
48846;BME280;34665;51.886;5.436;2022-09-23T05:10:07;101437.53;;;16.09;100.00
48846;BME280;34665;51.886;5.436;2022-09-23T05:12:32;101443.13;;;16.07;100.00
48846;BME280;34665;51.886;5.436;2022-09-23T05:14:58;101443.50;;;16.17;100.00
48846;BME280;34665;51.886;5.436;2022-09-23T05:17:24;101436.13;;;15.99;100.00
48846;BME280;34665;51.886;5.436;2022-09-23T05:19:49;101432.94;;;16.09;100.00
48846;BME280;34665;51.886;5.436;2022-09-23T05:22:15;101440.66;;;16.05;100.00
48846;BME280;34665;51.886;5.436;2022-09-23T05:24:40;101440.88;;;16.04;100.00
48846;BME280;34665;51.886;5.436;2022-09-23T05:27:06;101438.28;;;16.23;100.00
48846;BME280;34665;51.886;5.436;2022-09-23T05:29:32;101440.09;;;15.97;100.00
48846;BME280;34665;51.886;5.436;2022-09-23T05:31:57;101446.22;;;16.11;100.00
48846;BME280;34665;51.886;5.436;2022-09-23T05:34:22;101443.66;;;16.23;100.00
48846;BME280;34665;51.886;5.436;2022-09-23T05:36:48;101447.00;;;16.18;100.00
48846;BME280;34665;51.886;5.436;2022-09-23T05:39:15;101444.91;;;16.20;100.00
48846;BME280;34665;51.886;5.436;2022-09-23T05:41:40;101447.09;;;16.62;100.00
48846;BME280;34665;51.886;5.436;2022-09-23T05:44:07;101449.88;;;16.23;100.00
48846;BME280;34665;51.886;5.436;2022-09-23T05:46:33;101444.53;;;16.16;100.00
48846;BME280;34665;51.886;5.436;2022-09-23T05:48:59;101448.41;;;15.95;100.00
48846;BME280;34665;51.886;5.436;2022-09-23T05:51:26;101451.06;;;16.02;100.00
48846;BME280;34665;51.886;5.436;2022-09-23T05:53:52;101455.81;;;16.07;100.00
48846;BME280;34665;51.886;5.436;2022-09-23T05:56:21;101453.31;;;16.05;100.00
48846;BME280;34665;51.886;5.436;2022-09-23T05:58:51;101449.75;;;16.11;100.00
48846;BME280;34665;51.886;5.436;2022-09-23T06:01:19;101458.59;;;16.51;100.00
48846;BME280;34665;51.886;5.436;2022-09-23T06:03:46;101451.78;;;16.73;100.00
48846;BME280;34665;51.886;5.436;2022-09-23T06:06:13;101452.75;;;16.79;100.00
48846;BME280;34665;51.886;5.436;2022-09-23T06:08:40;101454.03;;;16.51;100.00
48846;BME280;34665;51.886;5.436;2022-09-23T06:11:07;101457.50;;;16.01;100.00
48846;BME280;34665;51.886;5.436;2022-09-23T06:13:34;101451.94;;;16.28;100.00
48846;BME280;34665;51.886;5.436;2022-09-23T06:16:13;101449.03;;;16.29;100.00
48846;BME280;34665;51.886;5.436;2022-09-23T06:18:43;101452.81;;;16.22;100.00
48846;BME280;34665;51.886;5.436;2022-09-23T06:21:14;101449.81;;;16.81;100.00
48846;BME280;34665;51.886;5.436;2022-09-23T06:23:40;101448.84;;;17.00;100.00
48846;BME280;34665;51.886;5.436;2022-09-23T06:26:07;101449.91;;;16.48;100.00
48846;BME280;34665;51.886;5.436;2022-09-23T06:28:37;101448.25;;;16.47;100.00
48846;BME280;34665;51.886;5.436;2022-09-23T06:31:05;101444.72;;;16.72;100.00
48846;BME280;34665;51.886;5.436;2022-09-23T06:33:32;101440.56;;;16.51;100.00
48846;BME280;34665;51.886;5.436;2022-09-23T06:36:00;101447.81;;;16.51;100.00
48846;BME280;34665;51.886;5.436;2022-09-23T06:38:26;101443.06;;;16.46;100.00
48846;BME280;34665;51.886;5.436;2022-09-23T06:40:53;101447.25;;;16.42;100.00
48846;BME280;34665;51.886;5.436;2022-09-23T06:43:21;101447.66;;;16.89;100.00
48846;BME280;34665;51.886;5.436;2022-09-23T06:45:51;101452.00;;;17.16;100.00
48846;BME280;34665;51.886;5.436;2022-09-23T06:48:17;101449.69;;;17.19;100.00
48846;BME280;34665;51.886;5.436;2022-09-23T06:50:43;101444.91;;;16.52;100.00
48846;BME280;34665;51.886;5.436;2022-09-23T06:53:08;101453.75;;;16.59;100.00
48846;BME280;34665;51.886;5.436;2022-09-23T06:55:33;101448.63;;;16.26;100.00
48846;BME280;34665;51.886;5.436;2022-09-23T06:57:59;101444.47;;;16.23;100.00
48846;BME280;34665;51.886;5.436;2022-09-23T07:00:25;101451.25;;;17.27;100.00
48846;BME280;34665;51.886;5.436;2022-09-23T07:02:51;101452.44;;;17.50;100.00
48846;BME280;34665;51.886;5.436;2022-09-23T07:05:17;101451.56;;;16.75;100.00
48846;BME280;34665;51.886;5.436;2022-09-23T07:07:43;101451.31;;;17.02;100.00
48846;BME280;34665;51.886;5.436;2022-09-23T07:10:10;101445.94;;;16.95;100.00
48846;BME280;34665;51.886;5.436;2022-09-23T07:12:36;101449.00;;;16.80;100.00
48846;BME280;34665;51.886;5.436;2022-09-23T07:15:02;101439.81;;;17.06;100.00
48846;BME280;34665;51.886;5.436;2022-09-23T07:17:28;101446.22;;;16.68;100.00
48846;BME280;34665;51.886;5.436;2022-09-23T07:19:55;101447.09;;;16.62;100.00
48846;BME280;34665;51.886;5.436;2022-09-23T07:22:22;101444.22;;;16.82;100.00
48846;BME280;34665;51.886;5.436;2022-09-23T07:24:50;101442.00;;;17.16;100.00
48846;BME280;34665;51.886;5.436;2022-09-23T07:27:16;101446.41;;;16.92;100.00
48846;BME280;34665;51.886;5.436;2022-09-23T07:29:47;101439.34;;;16.91;100.00
48846;BME280;34665;51.886;5.436;2022-09-23T07:32:13;101439.19;;;17.79;100.00
48846;BME280;34665;51.886;5.436;2022-09-23T07:34:38;101451.34;;;18.19;100.00
48846;BME280;34665;51.886;5.436;2022-09-23T07:37:04;101449.03;;;18.46;100.00
48846;BME280;34665;51.886;5.436;2022-09-23T07:39:29;101452.88;;;17.47;100.00
48846;BME280;34665;51.886;5.436;2022-09-23T07:41:55;101450.41;;;18.37;100.00
48846;BME280;34665;51.886;5.436;2022-09-23T07:44:21;101460.03;;;18.21;100.00
48846;BME280;34665;51.886;5.436;2022-09-23T07:46:47;101458.69;;;18.00;100.00
48846;BME280;34665;51.886;5.436;2022-09-23T07:49:14;101455.03;;;17.75;100.00
48846;BME280;34665;51.886;5.436;2022-09-23T07:51:41;101458.78;;;18.36;100.00
48846;BME280;34665;51.886;5.436;2022-09-23T07:54:13;101463.66;;;18.69;100.00
48846;BME280;34665;51.886;5.436;2022-09-23T07:56:40;101460.13;;;19.04;100.00
48846;BME280;34665;51.886;5.436;2022-09-23T07:59:08;101463.78;;;18.62;100.00
48846;BME280;34665;51.886;5.436;2022-09-23T08:01:37;101462.78;;;18.33;100.00
48846;BME280;34665;51.886;5.436;2022-09-23T08:04:05;101453.50;;;18.53;100.00
48846;BME280;34665;51.886;5.436;2022-09-23T08:06:32;101456.34;;;18.70;100.00
48846;BME280;34665;51.886;5.436;2022-09-23T08:08:59;101458.56;;;19.20;100.00
48846;BME280;34665;51.886;5.436;2022-09-23T08:11:24;101454.44;;;19.30;100.00
48846;BME280;34665;51.886;5.436;2022-09-23T08:13:51;101456.25;;;19.12;100.00
48846;BME280;34665;51.886;5.436;2022-09-23T08:16:17;101462.13;;;18.85;100.00
48846;BME280;34665;51.886;5.436;2022-09-23T08:18:43;101458.94;;;19.24;100.00
48846;BME280;34665;51.886;5.436;2022-09-23T08:21:11;101457.78;;;18.96;100.00
48846;BME280;34665;51.886;5.436;2022-09-23T08:23:36;101459.19;;;19.63;100.00
48846;BME280;34665;51.886;5.436;2022-09-23T08:26:04;101460.91;;;19.41;100.00
48846;BME280;34665;51.886;5.436;2022-09-23T08:28:30;101465.53;;;19.28;100.00
48846;BME280;34665;51.886;5.436;2022-09-23T08:30:58;101459.41;;;19.21;100.00
48846;BME280;34665;51.886;5.436;2022-09-23T08:33:25;101462.44;;;19.37;100.00
48846;BME280;34665;51.886;5.436;2022-09-23T08:35:51;101456.44;;;19.23;100.00
48846;BME280;34665;51.886;5.436;2022-09-23T08:38:18;101458.88;;;19.48;100.00
48846;BME280;34665;51.886;5.436;2022-09-23T08:40:47;101457.44;;;19.98;100.00
48846;BME280;34665;51.886;5.436;2022-09-23T08:43:25;101468.25;;;20.44;100.00
48846;BME280;34665;51.886;5.436;2022-09-23T08:45:52;101465.50;;;20.61;100.00
48846;BME280;34665;51.886;5.436;2022-09-23T08:48:27;101459.25;;;20.78;100.00
48846;BME280;34665;51.886;5.436;2022-09-23T08:51:00;101458.69;;;20.93;100.00
48846;BME280;34665;51.886;5.436;2022-09-23T08:53:28;101470.06;;;20.90;100.00
48846;BME280;34665;51.886;5.436;2022-09-23T08:55:57;101461.94;;;21.34;100.00
48846;BME280;34665;51.886;5.436;2022-09-23T08:58:58;101464.41;;;21.58;100.00
48846;BME280;34665;51.886;5.436;2022-09-23T09:01:40;101467.38;;;21.79;100.00
48846;BME280;34665;51.886;5.436;2022-09-23T09:09:43;101467.88;;;22.63;100.00
48846;BME280;34665;51.886;5.436;2022-09-23T09:12:17;101466.41;;;22.51;100.00
48846;BME280;34665;51.886;5.436;2022-09-23T09:15:16;101460.91;;;22.45;100.00
48846;BME280;34665;51.886;5.436;2022-09-23T09:18:32;101461.22;;;22.87;97.71
48846;BME280;34665;51.886;5.436;2022-09-23T09:23:40;101455.63;;;23.88;93.85
48846;BME280;34665;51.886;5.436;2022-09-23T09:26:15;101463.44;;;23.43;90.27
48846;BME280;34665;51.886;5.436;2022-09-23T09:28:46;101458.41;;;24.04;86.09
48846;BME280;34665;51.886;5.436;2022-09-23T09:31:30;101473.97;;;24.60;82.04
48846;BME280;34665;51.886;5.436;2022-09-23T09:34:33;101462.75;;;24.72;82.36
48846;BME280;34665;51.886;5.436;2022-09-23T09:37:03;101460.41;;;25.26;79.11
48846;BME280;34665;51.886;5.436;2022-09-23T09:39:34;101462.13;;;25.06;80.50
48846;BME280;34665;51.886;5.436;2022-09-23T09:41:59;101468.22;;;24.83;81.68
48846;BME280;34665;51.886;5.436;2022-09-23T09:44:37;101456.78;;;24.03;80.82
48846;BME280;34665;51.886;5.436;2022-09-23T09:47:33;101461.13;;;24.56;78.54
48846;BME280;34665;51.886;5.436;2022-09-23T09:52:30;101457.22;;;26.09;73.58
48846;BME280;34665;51.886;5.436;2022-09-23T09:57:40;101454.72;;;27.26;66.49
48846;BME280;34665;51.886;5.436;2022-09-23T10:00:33;101454.84;;;28.16;62.17
48846;BME280;34665;51.886;5.436;2022-09-23T10:03:04;101451.25;;;27.39;62.44
48846;BME280;34665;51.886;5.436;2022-09-23T10:05:49;101459.09;;;27.51;59.08
48846;BME280;34665;51.886;5.436;2022-09-23T10:08:30;101449.38;;;26.91;60.90
48846;BME280;34665;51.886;5.436;2022-09-23T10:13:30;101444.03;;;26.16;65.94
48846;BME280;34665;51.886;5.436;2022-09-23T10:15:58;101444.06;;;26.46;64.78
48846;BME280;34665;51.886;5.436;2022-09-23T10:18:31;101435.25;;;26.73;64.64
48846;BME280;34665;51.886;5.436;2022-09-23T10:21:10;101442.97;;;27.20;63.33
48846;BME280;34665;51.886;5.436;2022-09-23T10:23:54;101432.72;;;27.07;63.54
48846;BME280;34665;51.886;5.436;2022-09-23T10:26:28;101441.13;;;26.91;61.29
48846;BME280;34665;51.886;5.436;2022-09-23T10:28:57;101438.06;;;26.68;60.34
48846;BME280;34665;51.886;5.436;2022-09-23T10:31:31;101444.59;;;26.72;59.20
48846;BME280;34665;51.886;5.436;2022-09-23T10:34:23;101437.94;;;26.54;58.82
48846;BME280;34665;51.886;5.436;2022-09-23T10:37:05;101439.97;;;26.43;59.22
48846;BME280;34665;51.886;5.436;2022-09-23T10:39:33;101444.91;;;26.41;60.83
48846;BME280;34665;51.886;5.436;2022-09-23T10:42:47;101436.94;;;27.42;58.25
48846;BME280;34665;51.886;5.436;2022-09-23T10:45:38;101443.66;;;26.87;61.01
48846;BME280;34665;51.886;5.436;2022-09-23T10:49:03;101444.88;;;27.00;59.51
48846;BME280;34665;51.886;5.436;2022-09-23T10:51:45;101437.31;;;25.93;63.21
48846;BME280;34665;51.886;5.436;2022-09-23T10:56:56;101426.69;;;26.26;61.16
48846;BME280;34665;51.886;5.436;2022-09-23T10:59:36;101424.63;;;26.42;59.96
48846;BME280;34665;51.886;5.436;2022-09-23T11:02:25;101427.31;;;25.78;62.30
48846;BME280;34665;51.886;5.436;2022-09-23T11:08:09;101430.22;;;26.86;60.43
48846;BME280;34665;51.886;5.436;2022-09-23T11:13:41;101426.94;;;27.08;57.60
48846;BME280;34665;51.886;5.436;2022-09-23T11:16:36;101419.91;;;26.18;59.47
48846;BME280;34665;51.886;5.436;2022-09-23T11:24:52;101423.16;;;26.20;58.50
48846;BME280;34665;51.886;5.436;2022-09-23T11:30:16;101426.28;;;26.68;57.29
48846;BME280;34665;51.886;5.436;2022-09-23T11:32:54;101418.88;;;27.17;55.19
48846;BME280;34665;51.886;5.436;2022-09-23T11:35:30;101415.41;;;27.30;54.46
48846;BME280;34665;51.886;5.436;2022-09-23T11:40:44;101410.34;;;27.18;55.58
48846;BME280;34665;51.886;5.436;2022-09-23T11:43:23;101422.56;;;28.22;52.10
48846;BME280;34665;51.886;5.436;2022-09-23T11:46:06;101404.66;;;27.34;53.47
48846;BME280;34665;51.886;5.436;2022-09-23T11:48:49;101404.41;;;27.49;54.47
48846;BME280;34665;51.886;5.436;2022-09-23T11:51:32;101402.22;;;27.52;53.37
48846;BME280;34665;51.886;5.436;2022-09-23T11:54:07;101406.78;;;27.95;51.63
48846;BME280;34665;51.886;5.436;2022-09-23T11:56:43;101393.38;;;27.55;53.01
48846;BME280;34665;51.886;5.436;2022-09-23T11:59:39;101402.22;;;27.71;51.09
48846;BME280;34665;51.886;5.436;2022-09-23T12:04:50;101393.53;;;27.63;50.55
48846;BME280;34665;51.886;5.436;2022-09-23T12:07:29;101394.13;;;27.41;49.26
48846;BME280;34665;51.886;5.436;2022-09-23T12:10:07;101398.25;;;27.19;49.87
48846;BME280;34665;51.886;5.436;2022-09-23T12:12:50;101396.31;;;26.76;50.92
48846;BME280;34665;51.886;5.436;2022-09-23T12:15:25;101387.47;;;27.04;51.55
48846;BME280;34665;51.886;5.436;2022-09-23T12:23:52;101386.78;;;26.93;51.38
48846;BME280;34665;51.886;5.436;2022-09-23T12:26:28;101377.53;;;27.08;51.58
48846;BME280;34665;51.886;5.436;2022-09-23T12:28:59;101369.78;;;27.54;51.02
48846;BME280;34665;51.886;5.436;2022-09-23T12:31:27;101369.19;;;26.94;52.12
48846;BME280;34665;51.886;5.436;2022-09-23T12:33:59;101371.31;;;27.02;52.95
48846;BME280;34665;51.886;5.436;2022-09-23T12:36:29;101372.13;;;26.30;54.22
48846;BME280;34665;51.886;5.436;2022-09-23T12:39:15;101364.06;;;26.63;53.90
48846;BME280;34665;51.886;5.436;2022-09-23T12:41:48;101357.66;;;26.73;54.18
48846;BME280;34665;51.886;5.436;2022-09-23T12:49:40;101361.97;;;27.03;51.95
48846;BME280;34665;51.886;5.436;2022-09-23T12:54:35;101347.25;;;26.94;52.18
48846;BME280;34665;51.886;5.436;2022-09-23T12:57:02;101350.00;;;26.70;52.68
48846;BME280;34665;51.886;5.436;2022-09-23T12:59:30;101360.50;;;26.38;52.83
48846;BME280;34665;51.886;5.436;2022-09-23T13:02:15;101349.78;;;26.66;53.45
48846;BME280;34665;51.886;5.436;2022-09-23T13:04:54;101355.25;;;26.66;53.33
48846;BME280;34665;51.886;5.436;2022-09-23T13:07:46;101350.97;;;26.79;54.32
48846;BME280;34665;51.886;5.436;2022-09-23T13:12:48;101348.19;;;26.60;55.70
48846;BME280;34665;51.886;5.436;2022-09-23T13:15:26;101357.38;;;26.50;53.53
48846;BME280;34665;51.886;5.436;2022-09-23T13:20:51;101349.28;;;27.08;52.75
48846;BME280;34665;51.886;5.436;2022-09-23T13:23:28;101345.97;;;26.62;52.79
48846;BME280;34665;51.886;5.436;2022-09-23T13:26:08;101349.28;;;26.88;52.80
48846;BME280;34665;51.886;5.436;2022-09-23T13:28:52;101348.91;;;27.33;51.55
48846;BME280;34665;51.886;5.436;2022-09-23T13:31:19;101342.00;;;27.17;51.87
48846;BME280;34665;51.886;5.436;2022-09-23T13:33:46;101330.38;;;26.82;52.24
48846;BME280;34665;51.886;5.436;2022-09-23T13:36:17;101331.53;;;26.32;52.83
48846;BME280;34665;51.886;5.436;2022-09-23T13:38:43;101329.47;;;26.43;52.29
48846;BME280;34665;51.886;5.436;2022-09-23T13:41:18;101333.63;;;26.65;51.44
48846;BME280;34665;51.886;5.436;2022-09-23T13:43:54;101334.47;;;26.36;52.45
48846;BME280;34665;51.886;5.436;2022-09-23T13:46:39;101336.41;;;26.35;53.47
48846;BME280;34665;51.886;5.436;2022-09-23T13:49:19;101333.03;;;26.43;53.10
48846;BME280;34665;51.886;5.436;2022-09-23T13:51:45;101337.09;;;26.70;52.20
48846;BME280;34665;51.886;5.436;2022-09-23T13:54:32;101329.34;;;26.29;53.62
48846;BME280;34665;51.886;5.436;2022-09-23T13:57:01;101323.63;;;26.49;54.51
48846;BME280;34665;51.886;5.436;2022-09-23T13:59:28;101323.38;;;26.22;55.40
48846;BME280;34665;51.886;5.436;2022-09-23T14:02:04;101317.50;;;26.58;55.43
48846;BME280;34665;51.886;5.436;2022-09-23T14:04:30;101321.69;;;26.26;56.64
48846;BME280;34665;51.886;5.436;2022-09-23T14:06:55;101318.56;;;26.38;56.37
48846;BME280;34665;51.886;5.436;2022-09-23T14:09:23;101317.03;;;26.26;56.38
48846;BME280;34665;51.886;5.436;2022-09-23T14:11:52;101308.28;;;26.48;56.46
48846;BME280;34665;51.886;5.436;2022-09-23T14:14:19;101313.56;;;26.15;56.69
48846;BME280;34665;51.886;5.436;2022-09-23T14:16:48;101305.09;;;26.41;56.58
48846;BME280;34665;51.886;5.436;2022-09-23T14:19:22;101300.44;;;25.83;57.69
48846;BME280;34665;51.886;5.436;2022-09-23T14:21:50;101298.28;;;25.45;59.59
48846;BME280;34665;51.886;5.436;2022-09-23T14:24:23;101298.41;;;25.64;60.40
48846;BME280;34665;51.886;5.436;2022-09-23T14:26:59;101301.81;;;25.85;61.23
48846;BME280;34665;51.886;5.436;2022-09-23T14:29:30;101294.53;;;26.00;61.35